Leggett, California
Current Conditions -  °F | °C
As of 11:15 PM on Saturday 22 Nov 2014 (Local Time) from KFOT Reporting Station
Overcast Overcast  
Wind Chill: 40°   Ceiling: 100
Heat Index: 45°   Visibility: 0mi
Dew Point: 45°   Wind: 8mph
Humidity: 100%   Direction: 150°SSE
Pressure: 30.33"   Gusts: NA
Location:  39.87°N, 123.72°W
Report Text: KFOT 230715Z AUTO 15007KT M1/4SM OVC001 07/07 A3033 RMK AO1
Loading
Personal Weather Stations






























Interactive Weather Map New forecast layout! Learn more

10-Day Weather Forecast

Advertisements
Track Severe Weather on mobile